createdAt,value
2018-07-16T00:00:14.512Z,101275.51
2018-07-16T00:02:42.620Z,101281.44
2018-07-16T00:05:10.375Z,101280.39
2018-07-16T00:07:38.090Z,101275.36
2018-07-16T00:10:05.797Z,101282.77
2018-07-16T00:12:33.481Z,101280.16
2018-07-16T00:15:01.238Z,101284.48
2018-07-16T00:17:28.884Z,101292.70
2018-07-16T00:19:56.540Z,101289.41
2018-07-16T00:22:24.201Z,101286.89
2018-07-16T00:24:51.885Z,101291.88
2018-07-16T00:27:19.568Z,101291.53
2018-07-16T00:29:47.221Z,101298.77
2018-07-16T00:32:14.846Z,101293.67
2018-07-16T00:34:42.541Z,101292.86
2018-07-16T00:37:10.237Z,101292.62
2018-07-16T00:39:37.891Z,101302.84
2018-07-16T00:42:05.668Z,101303.11
2018-07-16T00:44:33.381Z,101307.60
2018-07-16T00:47:01.032Z,101311.13
2018-07-16T00:49:28.677Z,101312.08
2018-07-16T00:51:56.315Z,101314.84
2018-07-16T00:54:23.989Z,101318.91
2018-07-16T00:56:51.650Z,101319.83
2018-07-16T00:59:19.299Z,101319.55
2018-07-16T01:01:46.971Z,101326.73
2018-07-16T01:04:14.637Z,101329.52
2018-07-16T01:06:42.287Z,101322.92
2018-07-16T01:09:09.988Z,101334.14
2018-07-16T01:11:37.663Z,101336.88
2018-07-16T01:14:05.454Z,101330.70
2018-07-16T01:16:33.141Z,101331.98
2018-07-16T01:19:00.808Z,101335.22
2018-07-16T01:21:28.507Z,101334.02
2018-07-16T01:23:56.240Z,101329.68
2018-07-16T01:26:23.873Z,101332.42
2018-07-16T01:28:51.515Z,101334.20
2018-07-16T01:31:19.152Z,101333.88
2018-07-16T01:33:46.822Z,101341.89
2018-07-16T01:36:14.501Z,101337.03
2018-07-16T01:38:42.278Z,101341.89
2018-07-16T01:41:09.984Z,101337.03
2018-07-16T01:43:37.649Z,101345.00
2018-07-16T01:46:05.307Z,101347.41
2018-07-16T01:48:32.940Z,101346.13
2018-07-16T01:51:00.648Z,101354.13
2018-07-16T01:53:28.298Z,101355.00
2018-07-16T01:55:55.949Z,101346.17
2018-07-16T01:58:23.620Z,101351.48
2018-07-16T02:00:57.146Z,101359.98
2018-07-16T02:03:26.049Z,101361.18
2018-07-16T02:05:53.773Z,101351.38
2018-07-16T02:08:22.367Z,101351.84
2018-07-16T02:10:50.033Z,101357.02
2018-07-16T02:13:17.875Z,101360.47
2018-07-16T02:15:45.545Z,101363.99
2018-07-16T02:18:13.863Z,101358.14
2018-07-16T02:20:41.813Z,101366.39
2018-07-16T02:23:09.563Z,101368.45
2018-07-16T02:25:37.372Z,101374.92
2018-07-16T02:28:05.356Z,101375.20
2018-07-16T02:30:32.947Z,101371.55
2018-07-16T02:33:00.629Z,101372.28
2018-07-16T02:35:28.310Z,101370.83
2018-07-16T02:37:55.940Z,101381.24
2018-07-16T02:40:23.601Z,101378.73
2018-07-16T02:42:51.254Z,101374.97
2018-07-16T02:45:18.888Z,101383.09
2018-07-16T02:47:46.571Z,101377.97
2018-07-16T02:50:14.205Z,101381.69
2018-07-16T02:52:41.930Z,101380.95
2018-07-16T02:55:09.684Z,101384.48
2018-07-16T02:57:37.297Z,101378.52
2018-07-16T03:00:05.085Z,101385.61
2018-07-16T03:02:35.140Z,101381.48
2018-07-16T03:05:03.347Z,101384.77
2018-07-16T03:07:31.052Z,101388.71
2018-07-16T03:09:58.961Z,101394.16
2018-07-16T03:12:26.700Z,101394.37
2018-07-16T03:14:54.363Z,101402.47
2018-07-16T03:17:22.020Z,101405.08
2018-07-16T03:19:49.726Z,101405.05
2018-07-16T03:22:17.411Z,101406.20
2018-07-16T03:24:45.031Z,101404.72
2018-07-16T03:27:12.721Z,101401.66
2018-07-16T03:29:40.346Z,101402.02
2018-07-16T03:32:08.108Z,101402.13
2018-07-16T03:34:35.813Z,101410.34
2018-07-16T03:37:03.509Z,101398.75
2018-07-16T03:39:31.260Z,101401.05
2018-07-16T03:41:59.217Z,101401.83
2018-07-16T03:44:26.862Z,101399.63
2018-07-16T03:46:54.522Z,101395.23
2018-07-16T03:49:22.190Z,101394.50
2018-07-16T03:51:49.796Z,101398.88
2018-07-16T03:54:17.447Z,101390.64
2018-07-16T03:56:45.080Z,101396.80
2018-07-16T03:59:12.759Z,101391.00
2018-07-16T04:01:40.591Z,101399.30
2018-07-16T04:04:08.184Z,101397.42
2018-07-16T04:06:35.851Z,101388.36
2018-07-16T04:09:04.397Z,101379.09
2018-07-16T04:11:32.052Z,101388.42
2018-07-16T04:13:59.755Z,101383.75
2018-07-16T04:16:27.524Z,101383.70
2018-07-16T04:18:55.194Z,101382.77
2018-07-16T04:21:22.837Z,101384.03
2018-07-16T04:23:50.513Z,101385.30
2018-07-16T04:26:18.272Z,101385.14
2018-07-16T04:28:45.920Z,101375.39
2018-07-16T04:31:13.565Z,101373.91
2018-07-16T04:33:41.241Z,101367.52
2018-07-16T04:36:08.878Z,101366.77
2018-07-16T04:38:36.584Z,101364.84
2018-07-16T04:41:04.252Z,101365.00
2018-07-16T04:43:31.984Z,101365.97
2018-07-16T04:45:59.637Z,101367.66
2018-07-16T04:48:27.378Z,101364.47
2018-07-16T04:50:55.104Z,101369.53
2018-07-16T04:53:22.802Z,101363.72
2018-07-16T04:55:50.528Z,101365.34
2018-07-16T04:58:18.181Z,101361.27
2018-07-16T05:00:45.886Z,101368.41
2018-07-16T05:03:13.617Z,101360.25
2018-07-16T05:05:41.371Z,101361.56
2018-07-16T05:08:09.064Z,101360.77
2018-07-16T05:10:36.780Z,101356.61
2018-07-16T05:13:04.458Z,101357.91
2018-07-16T05:15:32.135Z,101366.04
2018-07-16T05:17:59.781Z,101359.14
2018-07-16T05:20:27.491Z,101359.00
2018-07-16T05:22:55.167Z,101361.26
2018-07-16T05:25:22.859Z,101359.63
2018-07-16T05:27:50.525Z,101362.17
2018-07-16T05:30:18.166Z,101351.70
2018-07-16T05:32:45.937Z,101342.71
2018-07-16T05:35:13.566Z,101338.25
2018-07-16T05:37:41.249Z,101339.56
2018-07-16T05:40:08.990Z,101333.08
2018-07-16T05:42:36.714Z,101338.14
2018-07-16T05:45:04.477Z,101340.70
2018-07-16T05:47:32.164Z,101340.20
2018-07-16T05:49:59.907Z,101347.84
2018-07-16T05:52:27.660Z,101347.22
2018-07-16T05:54:55.312Z,101351.62
2018-07-16T05:57:23.001Z,101350.92
2018-07-16T05:59:50.748Z,101356.72
2018-07-16T06:02:18.470Z,101354.53
2018-07-16T06:04:46.148Z,101357.53
2018-07-16T06:07:13.845Z,101352.14
2018-07-16T06:09:41.533Z,101355.86
2018-07-16T06:12:09.162Z,101356.92
2018-07-16T06:14:36.988Z,101354.50
2018-07-16T06:17:04.718Z,101359.64
2018-07-16T06:19:32.434Z,101356.81
2018-07-16T06:22:00.144Z,101352.58
2018-07-16T06:24:27.873Z,101357.80
2018-07-16T06:26:55.561Z,101351.83
2018-07-16T06:29:23.232Z,101355.44
2018-07-16T06:31:51.021Z,101357.55
2018-07-16T06:34:18.770Z,101361.54
2018-07-16T06:36:46.481Z,101366.72
2018-07-16T06:39:14.180Z,101361.92
2018-07-16T06:41:41.891Z,101359.14
2018-07-16T06:44:09.931Z,101365.06
2018-07-16T06:46:37.662Z,101358.98
2018-07-16T06:49:05.363Z,101367.30
2018-07-16T06:51:33.197Z,101363.25
2018-07-16T06:54:01.085Z,101358.34
2018-07-16T06:56:28.758Z,101354.95
2018-07-16T06:58:56.468Z,101353.97
2018-07-16T07:01:24.140Z,101363.67
2018-07-16T07:03:51.797Z,101358.98
2018-07-16T07:06:19.540Z,101356.71
2018-07-16T07:08:47.199Z,101355.80
2018-07-16T07:11:14.874Z,101359.81
2018-07-16T07:13:42.535Z,101357.23
2018-07-16T07:16:10.257Z,101359.13
2018-07-16T07:18:37.911Z,101354.86
2018-07-16T07:21:05.626Z,101356.27
2018-07-16T07:23:34.515Z,101353.60
2018-07-16T07:26:02.174Z,101352.87
2018-07-16T07:28:29.878Z,101346.84
2018-07-16T07:30:57.950Z,101346.09
2018-07-16T07:33:25.693Z,101346.49
2018-07-16T07:35:53.447Z,101347.20
2018-07-16T07:38:21.228Z,101349.59
2018-07-16T07:40:48.951Z,101347.12
2018-07-16T07:43:16.663Z,101349.47
2018-07-16T07:45:44.440Z,101350.98
2018-07-16T07:48:12.166Z,101349.87
2018-07-16T07:50:39.921Z,101349.22
2018-07-16T07:53:07.647Z,101351.47
2018-07-16T07:55:35.649Z,101352.83
2018-07-16T07:58:03.465Z,101346.03
2018-07-16T08:00:31.157Z,101352.20
2018-07-16T08:02:58.879Z,101351.23
2018-07-16T08:05:26.636Z,101342.57
2018-07-16T08:07:54.310Z,101341.27
2018-07-16T08:10:21.996Z,101343.25
2018-07-16T08:12:49.690Z,101349.41
2018-07-16T08:15:17.609Z,101349.22
2018-07-16T08:17:45.369Z,101348.37
2018-07-16T08:20:13.138Z,101349.95
2018-07-16T08:22:40.883Z,101347.72
2018-07-16T08:25:08.574Z,101336.09
2018-07-16T08:27:36.345Z,101338.41
2018-07-16T08:30:05.074Z,101339.55
2018-07-16T08:32:32.752Z,101344.23
2018-07-16T08:35:00.438Z,101340.68
2018-07-16T08:37:28.090Z,101332.66
2018-07-16T08:39:55.790Z,101337.59
2018-07-16T08:42:23.547Z,101331.95
2018-07-16T08:44:51.282Z,101332.47
2018-07-16T08:47:18.952Z,101328.04
2018-07-16T08:49:46.598Z,101324.59
2018-07-16T08:52:14.290Z,101323.63
2018-07-16T08:54:42.115Z,101326.75
2018-07-16T08:57:09.806Z,101324.13
2018-07-16T08:59:37.497Z,101314.36
2018-07-16T09:02:05.284Z,101317.12
2018-07-16T09:04:33.001Z,101321.81
2018-07-16T09:07:00.751Z,101322.84
2018-07-16T09:09:28.568Z,101319.59
2018-07-16T09:11:56.256Z,101319.13
2018-07-16T09:14:23.984Z,101320.47
2018-07-16T09:16:51.722Z,101313.48
2018-07-16T09:19:19.402Z,101322.78
2018-07-16T09:21:47.044Z,101317.39
2018-07-16T09:24:14.686Z,101312.33
2018-07-16T09:26:42.444Z,101310.28
2018-07-16T09:29:10.219Z,101311.72
2018-07-16T09:31:37.890Z,101316.80
2018-07-16T09:34:05.593Z,101307.46
2018-07-16T09:36:33.301Z,101301.32
2018-07-16T09:39:01.178Z,101306.58
2018-07-16T09:41:28.840Z,101304.98
2018-07-16T09:43:56.561Z,101303.59
2018-07-16T09:46:24.245Z,101305.41
2018-07-16T09:48:51.938Z,101306.33
2018-07-16T09:51:19.645Z,101312.78
2018-07-16T09:53:47.319Z,101308.45
2018-07-16T09:56:15.026Z,101299.80
2018-07-16T09:58:42.683Z,101300.29
2018-07-16T10:01:15.895Z,101302.11
2018-07-16T10:03:43.561Z,101297.44
2018-07-16T10:06:11.286Z,101300.52
2018-07-16T10:08:38.925Z,101298.61
2018-07-16T10:11:06.672Z,101287.75
2018-07-16T10:13:34.346Z,101294.19
2018-07-16T10:16:02.003Z,101297.27
2018-07-16T10:18:29.626Z,101292.22
2018-07-16T10:20:57.373Z,101294.02
2018-07-16T10:23:25.024Z,101299.20
2018-07-16T10:25:52.808Z,101290.95
2018-07-16T10:28:20.497Z,101295.18
2018-07-16T10:30:48.181Z,101295.18
2018-07-16T10:33:15.838Z,101297.73
2018-07-16T10:35:43.495Z,101290.17
2018-07-16T10:38:11.153Z,101299.94
2018-07-16T10:40:38.799Z,101294.09
2018-07-16T10:43:06.565Z,101291.53
2018-07-16T10:45:34.320Z,101286.41
2018-07-16T10:48:02.007Z,101282.42
2018-07-16T10:50:29.675Z,101285.37
2018-07-16T10:52:57.443Z,101279.64
2018-07-16T10:55:25.084Z,101286.97
2018-07-16T10:57:52.735Z,101290.73
2018-07-16T11:00:20.545Z,101286.33
2018-07-16T11:02:48.348Z,101288.39
2018-07-16T11:05:16.034Z,101287.68
2018-07-16T11:07:43.716Z,101283.94
2018-07-16T11:10:11.461Z,101272.70
2018-07-16T11:12:39.146Z,101276.59
2018-07-16T11:15:06.897Z,101278.91
2018-07-16T11:17:34.620Z,101283.45
2018-07-16T11:20:02.304Z,101280.31
2018-07-16T11:22:29.963Z,101287.80
2018-07-16T11:24:57.605Z,101293.20
2018-07-16T11:27:25.323Z,101284.44
2018-07-16T11:29:53.038Z,101283.80
2018-07-16T11:32:20.704Z,101287.06
2018-07-16T11:34:48.372Z,101279.23
2018-07-16T11:37:16.073Z,101292.48
2018-07-16T11:39:43.916Z,101283.36
2018-07-16T11:42:11.560Z,101284.94
2018-07-16T11:44:39.299Z,101283.66
2018-07-16T11:47:07.419Z,101283.52
2018-07-16T11:49:35.083Z,101276.00
2018-07-16T11:52:02.782Z,101281.65
2018-07-16T11:54:30.913Z,101288.19
2018-07-16T11:56:58.596Z,101286.84
2018-07-16T11:59:26.412Z,101284.73
2018-07-16T12:01:54.014Z,101284.66
2018-07-16T12:04:21.629Z,101279.38
2018-07-16T12:06:49.305Z,101280.91
2018-07-16T12:09:17.055Z,101287.00
2018-07-16T12:11:44.832Z,101288.40
2018-07-16T12:14:12.505Z,101285.95
2018-07-16T12:16:40.196Z,101281.15
2018-07-16T12:19:08.031Z,101276.09
2018-07-16T12:21:35.694Z,101274.44
2018-07-16T12:24:03.360Z,101278.59
2018-07-16T12:26:31.142Z,101276.14
2018-07-16T12:28:59.004Z,101282.69
2018-07-16T12:31:26.902Z,101280.13
2018-07-16T12:33:54.752Z,101279.16
2018-07-16T12:36:22.486Z,101282.55
2018-07-16T12:38:50.462Z,101282.40
2018-07-16T12:41:18.261Z,101273.87
2018-07-16T12:43:45.992Z,101282.13
2018-07-16T12:46:13.779Z,101277.90
2018-07-16T12:48:42.373Z,101268.78
2018-07-16T12:51:10.218Z,101273.90
2018-07-16T12:53:37.999Z,101268.74
2018-07-16T12:56:05.774Z,101262.39
2018-07-16T12:58:33.584Z,101262.06
2018-07-16T13:01:01.325Z,101259.84
2018-07-16T13:03:29.095Z,101265.51
2018-07-16T13:05:57.124Z,101255.70
2018-07-16T13:08:24.928Z,101261.82
2018-07-16T13:10:52.656Z,101258.78
2018-07-16T13:13:20.418Z,101255.17
2018-07-16T13:15:48.506Z,101248.45
2018-07-16T13:18:16.298Z,101251.27
2018-07-16T13:20:44.041Z,101244.81
2018-07-16T13:23:11.806Z,101244.33
2018-07-16T13:25:39.546Z,101236.66
2018-07-16T13:28:07.324Z,101242.14
2018-07-16T13:30:35.114Z,101247.48
2018-07-16T13:33:02.872Z,101238.70
2018-07-16T13:35:30.610Z,101250.19
2018-07-16T13:37:58.424Z,101242.29
2018-07-16T13:40:26.226Z,101246.92
2018-07-16T13:42:54.018Z,101245.59
2018-07-16T13:45:21.803Z,101247.02
2018-07-16T13:47:49.537Z,101245.20
2018-07-16T13:50:17.331Z,101236.34
2018-07-16T13:52:45.118Z,101243.95
2018-07-16T13:55:12.855Z,101248.07
2018-07-16T13:57:40.613Z,101248.80
2018-07-16T14:00:08.423Z,101247.77
2018-07-16T14:02:36.160Z,101251.27
2018-07-16T14:05:04.019Z,101249.48
2018-07-16T14:07:31.709Z,101246.45
2018-07-16T14:09:59.485Z,101248.81
2018-07-16T14:12:27.337Z,101245.11
2018-07-16T14:14:55.019Z,101245.23
2018-07-16T14:17:22.779Z,101238.99
2018-07-16T14:19:50.528Z,101247.96
2018-07-16T14:22:18.165Z,101248.89
2018-07-16T14:24:46.532Z,101257.27
2018-07-16T14:27:14.238Z,101251.23
2018-07-16T14:29:42.007Z,101249.86
2018-07-16T14:32:09.748Z,101245.62
2018-07-16T14:34:37.506Z,101244.80
2018-07-16T14:37:05.320Z,101249.02
2018-07-16T14:39:33.147Z,101253.70
2018-07-16T14:42:00.825Z,101245.59
2018-07-16T14:44:28.620Z,101250.98
2018-07-16T14:46:56.388Z,101251.41
2018-07-16T14:49:24.112Z,101244.20
2018-07-16T14:51:51.893Z,101252.59
2018-07-16T14:54:19.668Z,101249.05
2018-07-16T14:56:47.560Z,101247.86
2018-07-16T14:59:15.292Z,101245.77
2018-07-16T15:01:43.083Z,101247.54
2018-07-16T15:04:10.829Z,101249.81
2018-07-16T15:06:38.546Z,101254.42
2018-07-16T15:09:08.133Z,101250.19
2018-07-16T15:11:35.871Z,101247.89
2018-07-16T15:14:03.672Z,101257.42
2018-07-16T15:16:31.446Z,101249.92
2018-07-16T15:18:59.166Z,101251.61
2018-07-16T15:21:27.937Z,101255.70
2018-07-16T15:23:55.480Z,101255.98
2018-07-16T15:26:23.202Z,101257.97
2018-07-16T15:28:50.941Z,101257.97
2018-07-16T15:31:18.675Z,101253.83
2018-07-16T15:33:46.429Z,101256.19
2018-07-16T15:36:14.153Z,101254.48
2018-07-16T15:38:41.950Z,101254.37
2018-07-16T15:41:09.740Z,101253.50
2018-07-16T15:43:37.584Z,101248.72
2018-07-16T15:46:05.338Z,101246.30
2018-07-16T15:48:33.154Z,101248.48
2018-07-16T15:51:01.826Z,101247.06
2018-07-16T15:53:29.715Z,101252.50
2018-07-16T15:55:57.481Z,101254.84
2018-07-16T15:58:25.199Z,101252.44
2018-07-16T16:00:53.336Z,101248.69
2018-07-16T16:03:21.156Z,101250.87
2018-07-16T16:05:48.926Z,101251.98
2018-07-16T16:08:17.847Z,101257.70
2018-07-16T16:10:45.590Z,101262.77
2018-07-16T16:13:13.401Z,101264.77
2018-07-16T16:15:41.220Z,101255.37
2018-07-16T16:18:08.972Z,101257.86
2018-07-16T16:20:36.768Z,101262.42
2018-07-16T16:23:04.957Z,101263.92
2018-07-16T16:25:32.654Z,101268.63
2018-07-16T16:28:00.404Z,101266.55
2018-07-16T16:30:28.289Z,101265.50
2018-07-16T16:32:56.180Z,101271.03
2018-07-16T16:35:24.018Z,101262.34
2018-07-16T16:37:51.850Z,101263.11
2018-07-16T16:40:19.627Z,101265.91
2018-07-16T16:42:47.424Z,101272.68
2018-07-16T16:45:15.196Z,101273.81
2018-07-16T16:47:42.980Z,101271.77
2018-07-16T16:50:10.746Z,101273.58
2018-07-16T16:52:38.558Z,101273.88
2018-07-16T16:55:06.398Z,101270.30
2018-07-16T16:57:34.158Z,101275.50
2018-07-16T17:00:01.933Z,101271.05
2018-07-16T17:02:29.646Z,101268.47
2018-07-16T17:04:57.454Z,101269.83
2018-07-16T17:07:25.174Z,101273.70
2018-07-16T17:09:52.934Z,101276.23
2018-07-16T17:12:20.698Z,101276.53
2018-07-16T17:14:48.410Z,101273.08
2018-07-16T17:17:16.927Z,101278.14
2018-07-16T17:19:44.664Z,101277.59
2018-07-16T17:22:12.479Z,101278.02
2018-07-16T17:24:40.220Z,101275.92
2018-07-16T17:27:08.010Z,101272.62
2018-07-16T17:29:35.775Z,101280.70
2018-07-16T17:32:04.331Z,101281.85
2018-07-16T17:34:32.055Z,101275.73
2018-07-16T17:36:59.805Z,101276.17
2018-07-16T17:39:27.538Z,101272.58
2018-07-16T17:41:55.260Z,101274.73
2018-07-16T17:44:23.085Z,101274.30
2018-07-16T17:46:50.761Z,101274.96
2018-07-16T17:49:18.510Z,101275.59
2018-07-16T17:51:46.308Z,101278.97
2018-07-16T17:54:14.089Z,101278.89
2018-07-16T17:56:42.174Z,101278.50
2018-07-16T17:59:09.939Z,101277.58
2018-07-16T18:01:37.774Z,101276.52
2018-07-16T18:04:05.696Z,101284.02
2018-07-16T18:06:33.429Z,101283.25
2018-07-16T18:09:01.183Z,101282.11
2018-07-16T18:11:28.936Z,101283.36
2018-07-16T18:13:56.769Z,101274.63
2018-07-16T18:16:24.503Z,101265.38
2018-07-16T18:18:52.260Z,101274.41
2018-07-16T18:21:20.034Z,101271.42
2018-07-16T18:23:47.775Z,101274.87
2018-07-16T18:26:15.530Z,101275.41
2018-07-16T18:28:43.231Z,101281.55
2018-07-16T18:31:11.016Z,101281.11
2018-07-16T18:33:38.759Z,101286.11
2018-07-16T18:36:06.592Z,101281.59
2018-07-16T18:38:34.387Z,101283.73
2018-07-16T18:41:02.208Z,101282.81
2018-07-16T18:43:30.037Z,101282.98
2018-07-16T18:45:58.268Z,101281.83
2018-07-16T18:48:26.018Z,101279.68
2018-07-16T18:50:53.774Z,101282.95
2018-07-16T18:53:21.597Z,101277.94
2018-07-16T18:55:49.391Z,101279.48
2018-07-16T18:58:18.195Z,101280.97
2018-07-16T19:00:45.896Z,101276.60
2018-07-16T19:03:13.828Z,101282.19
2018-07-16T19:05:41.618Z,101278.92
2018-07-16T19:08:09.378Z,101282.30
2018-07-16T19:10:37.241Z,101285.29
2018-07-16T19:13:05.191Z,101284.05
2018-07-16T19:15:32.948Z,101287.18
2018-07-16T19:18:00.739Z,101284.27
2018-07-16T19:20:28.622Z,101284.22
2018-07-16T19:22:56.383Z,101291.27
2018-07-16T19:25:24.272Z,101290.61
2018-07-16T19:27:52.089Z,101286.94
2018-07-16T19:30:19.902Z,101290.31
2018-07-16T19:32:47.693Z,101294.39
2018-07-16T19:35:15.710Z,101292.80
2018-07-16T19:37:43.497Z,101289.16
2018-07-16T19:40:11.278Z,101286.62
2018-07-16T19:42:39.850Z,101289.22
2018-07-16T19:45:07.708Z,101292.19
2018-07-16T19:47:36.185Z,101293.27
2018-07-16T19:50:04.510Z,101296.34
2018-07-16T19:52:32.251Z,101297.33
2018-07-16T19:55:00.055Z,101299.39
2018-07-16T19:57:27.796Z,101301.36
2018-07-16T19:59:55.448Z,101299.86
2018-07-16T20:02:23.188Z,101304.63
2018-07-16T20:04:50.945Z,101305.73
2018-07-16T20:07:18.735Z,101303.63
2018-07-16T20:09:46.555Z,101309.07
2018-07-16T20:12:25.933Z,101308.92
2018-07-16T20:14:53.765Z,101321.70
2018-07-16T20:17:21.526Z,101321.55
2018-07-16T20:19:49.266Z,101328.11
2018-07-16T20:22:17.053Z,101328.80
2018-07-16T20:24:45.153Z,101330.08
2018-07-16T20:27:13.046Z,101330.12
2018-07-16T20:29:40.776Z,101337.63
2018-07-16T20:32:08.539Z,101342.21
2018-07-16T20:34:36.302Z,101341.89
2018-07-16T20:37:04.143Z,101343.52
2018-07-16T20:39:31.942Z,101346.41
2018-07-16T20:41:59.808Z,101352.53
2018-07-16T20:44:27.690Z,101345.13
2018-07-16T20:46:55.418Z,101354.20
2018-07-16T20:49:23.078Z,101350.82
2018-07-16T20:51:50.841Z,101352.91
2018-07-16T20:54:18.475Z,101359.17
2018-07-16T20:56:46.150Z,101358.83
2018-07-16T20:59:13.815Z,101359.34
2018-07-16T21:01:42.179Z,101369.07
2018-07-16T21:04:09.928Z,101369.79
2018-07-16T21:06:37.667Z,101375.39
2018-07-16T21:09:06.963Z,101379.84
2018-07-16T21:11:34.675Z,101380.66
2018-07-16T21:14:02.372Z,101383.84
2018-07-16T21:16:30.189Z,101387.79
2018-07-16T21:18:57.835Z,101385.71
2018-07-16T21:21:25.550Z,101390.22
2018-07-16T21:23:53.253Z,101395.08
2018-07-16T21:26:20.939Z,101396.14
2018-07-16T21:28:48.693Z,101392.79
2018-07-16T21:31:16.454Z,101394.24
2018-07-16T21:33:44.147Z,101402.85
2018-07-16T21:36:11.881Z,101401.98
2018-07-16T21:38:39.667Z,101393.26
2018-07-16T21:41:07.537Z,101407.69
2018-07-16T21:43:35.264Z,101406.59
2018-07-16T21:46:03.001Z,101418.72
2018-07-16T21:48:30.777Z,101414.65
2018-07-16T21:50:58.473Z,101417.58
2018-07-16T21:53:26.936Z,101424.70
2018-07-16T21:55:54.931Z,101426.12
2018-07-16T21:58:22.690Z,101428.11
2018-07-16T22:00:50.671Z,101431.07
2018-07-16T22:03:18.367Z,101435.33
2018-07-16T22:05:46.071Z,101435.36
2018-07-16T22:08:13.813Z,101440.44
2018-07-16T22:10:41.622Z,101445.55
2018-07-16T22:13:09.354Z,101447.94
2018-07-16T22:15:37.064Z,101442.54
2018-07-16T22:18:04.957Z,101445.45
2018-07-16T22:20:32.725Z,101443.98
2018-07-16T22:23:00.533Z,101449.03
2018-07-16T22:25:28.326Z,101448.50
2018-07-16T22:27:56.904Z,101451.67
2018-07-16T22:30:24.688Z,101451.95
2018-07-16T22:32:52.386Z,101447.27
2018-07-16T22:35:20.175Z,101445.00
2018-07-16T22:37:48.003Z,101442.66
2018-07-16T22:40:15.796Z,101450.42
2018-07-16T22:42:43.550Z,101452.27
2018-07-16T22:45:11.326Z,101454.29
2018-07-16T22:47:39.089Z,101444.88
2018-07-16T22:50:06.950Z,101450.53
2018-07-16T22:52:34.711Z,101448.25
2018-07-16T22:55:02.403Z,101456.97
2018-07-16T22:57:30.129Z,101453.19
2018-07-16T22:59:57.828Z,101454.44
2018-07-16T23:02:25.509Z,101462.05
2018-07-16T23:04:53.324Z,101459.38
2018-07-16T23:07:21.048Z,101457.48
2018-07-16T23:09:48.773Z,101465.70
2018-07-16T23:12:16.576Z,101454.94
2018-07-16T23:14:44.305Z,101462.83
2018-07-16T23:17:12.139Z,101462.20
2018-07-16T23:19:39.911Z,101465.05
2018-07-16T23:22:07.597Z,101458.94
2018-07-16T23:24:35.365Z,101467.95
2018-07-16T23:27:03.105Z,101465.03
2018-07-16T23:29:30.860Z,101460.93
2018-07-16T23:31:58.681Z,101459.03
2018-07-16T23:34:26.409Z,101461.43
2018-07-16T23:36:54.136Z,101453.13
2018-07-16T23:39:21.908Z,101456.20
2018-07-16T23:41:49.551Z,101457.73
2018-07-16T23:44:17.233Z,101458.75
2018-07-16T23:46:45.016Z,101465.81
2018-07-16T23:49:12.754Z,101465.31
2018-07-16T23:51:40.498Z,101465.45
2018-07-16T23:54:08.226Z,101466.16
2018-07-16T23:56:35.979Z,101466.04
2018-07-16T23:59:03.762Z,101470.38
